Time;durP1;ratioP1;P1;durP2;ratioP2;P2;SDS_P1;SDS_P2;PMS_P1;PMS_P2;Temp;Humidity;BMP_temperature;BMP_pressure;BME280_temperature;BME280_humidity;BME280_pressure;Samples;Min_cycle;Max_cycle;Signal;HPM_P1;HPM_P2
2022/12/28 00:02:10;;;;;;;2.40;1.20;;;6.60;1.00;;;;;;5051370;28;20208;-58
2022/12/28 00:04:36;;;;;;;1.53;1.30;;;6.50;1.00;;;;;;5050604;28;20212;-57
2022/12/28 00:07:01;;;;;;;3.30;1.33;;;6.70;1.00;;;;;;5050098;28;20633;-57
2022/12/28 00:09:27;;;;;;;3.80;1.73;;;6.70;1.00;;;;;;5050758;28;20266;-62
2022/12/28 00:11:53;;;;;;;2.67;1.03;;;6.80;1.00;;;;;;5054140;28;20741;-56
2022/12/28 00:14:18;;;;;;;2.60;1.70;;;6.80;1.00;;;;;;5049267;28;20234;-57
2022/12/28 00:16:44;;;;;;;2.10;1.50;;;6.90;1.00;;;;;;5049210;28;20285;-57
2022/12/28 00:19:15;;;;;;;3.90;1.30;;;6.90;1.00;;;;;;5050031;28;20277;-56
2022/12/28 00:21:42;;;;;;;4.87;1.17;;;6.70;1.00;;;;;;5050700;28;20666;-56
2022/12/28 00:24:14;;;;;;;2.63;1.10;;;6.90;1.00;;;;;;5045817;28;20945;-56
2022/12/28 00:26:40;;;;;;;4.90;1.37;;;6.80;1.00;;;;;;5052987;28;20446;-56
2022/12/28 00:29:06;;;;;;;2.90;1.30;;;6.90;1.00;;;;;;5047804;28;20451;-56
2022/12/28 00:31:32;;;;;;;3.93;1.53;;;6.90;1.00;;;;;;5052344;28;20223;-56
2022/12/28 00:33:58;;;;;;;1.60;1.27;;;6.90;1.00;;;;;;5048664;28;20590;-57
2022/12/28 00:36:24;;;;;;;3.63;1.23;;;6.80;1.00;;;;;;5051990;28;20574;-57
2022/12/28 00:38:49;;;;;;;5.80;1.40;;;6.80;1.00;;;;;;5055135;28;20282;-57
2022/12/28 00:41:15;;;;;;;3.37;1.40;;;6.90;1.00;;;;;;5048137;28;20457;-55
2022/12/28 00:43:41;;;;;;;2.37;1.33;;;6.80;1.00;;;;;;5051954;28;20224;-56
2022/12/28 00:46:07;;;;;;;3.70;1.67;;;6.70;1.00;;;;;;5051312;28;20196;-56
2022/12/28 00:48:32;;;;;;;4.10;1.57;;;6.80;1.00;;;;;;5059164;28;20254;-57
2022/12/28 00:51:07;;;;;;;3.27;1.60;;;6.70;1.00;;;;;;5051227;28;20472;-56
2022/12/28 00:53:32;;;;;;;5.03;2.23;;;6.60;1.00;;;;;;5048791;28;20562;-57
2022/12/28 00:56:09;;;;;;;2.20;1.93;;;6.50;1.00;;;;;;5048418;28;20452;-56
2022/12/28 00:58:35;;;;;;;2.53;2.10;;;6.30;1.00;;;;;;5044501;28;20194;-57
2022/12/28 01:01:02;;;;;;;4.90;2.13;;;6.30;1.00;;;;;;5058014;28;20439;-55
2022/12/28 01:03:28;;;;;;;2.33;2.13;;;6.30;1.00;;;;;;5048093;28;20501;-56
2022/12/28 01:05:53;;;;;;;2.60;1.90;;;6.20;1.00;;;;;;5061354;28;20835;-56
2022/12/28 01:08:20;;;;;;;5.30;1.83;;;6.20;1.00;;;;;;5050088;28;20224;-56
2022/12/28 01:10:45;;;;;;;5.57;2.27;;;6.10;1.00;;;;;;5047625;28;20246;-56
2022/12/28 01:13:11;;;;;;;4.50;2.10;;;6.10;1.00;;;;;;5045689;28;20475;-56
2022/12/28 01:15:37;;;;;;;3.10;2.00;;;6.00;1.00;;;;;;5051400;28;20247;-57
2022/12/28 01:18:03;;;;;;;3.20;1.90;;;6.00;1.00;;;;;;5050760;28;20676;-56
2022/12/28 01:20:28;;;;;;;4.80;2.50;;;6.00;1.00;;;;;;5051133;28;20526;-56
2022/12/28 01:22:54;;;;;;;4.73;1.97;;;5.90;1.00;;;;;;5050192;28;20250;-56
2022/12/28 01:25:20;;;;;;;7.27;2.47;;;5.90;1.00;;;;;;5047685;28;20311;-56
2022/12/28 01:27:46;;;;;;;5.20;2.17;;;5.80;1.00;;;;;;5047806;28;20604;-57
2022/12/28 01:30:14;;;;;;;4.07;2.33;;;5.70;1.00;;;;;;5048613;28;20198;-57
2022/12/28 01:32:41;;;;;;;3.13;1.90;;;5.70;1.00;;;;;;5050096;28;20748;-57
2022/12/28 01:35:07;;;;;;;3.87;2.30;;;5.60;1.00;;;;;;5051878;28;21179;-57
2022/12/28 01:37:32;;;;;;;4.37;2.30;;;5.60;1.00;;;;;;5062737;28;20458;-56
2022/12/28 01:39:58;;;;;;;3.57;2.50;;;5.50;1.00;;;;;;5047915;28;20444;-56
2022/12/28 01:42:24;;;;;;;3.30;2.60;;;5.60;1.00;;;;;;5050861;28;20193;-57
2022/12/28 01:44:50;;;;;;;3.10;1.83;;;5.50;1.00;;;;;;5048484;28;20528;-57
2022/12/28 01:47:31;;;;;;;4.47;2.80;;;5.50;1.00;;;;;;5049123;28;20530;-57
2022/12/28 01:50:07;;;;;;;2.67;2.40;;;5.50;1.00;;;;;;5046847;28;20455;-55
2022/12/28 01:52:40;;;;;;;5.13;2.33;;;5.40;1.00;;;;;;5049834;28;20451;-56
2022/12/28 01:55:16;;;;;;;5.70;2.80;;;5.50;1.00;;;;;;5048401;28;21080;-57
2022/12/28 01:58:04;;;;;;;3.40;2.20;;;5.40;1.00;;;;;;5048842;28;20450;-57
2022/12/28 02:00:30;;;;;;;4.87;2.63;;;5.30;1.00;;;;;;5044901;28;20455;-56
2022/12/28 02:03:04;;;;;;;3.53;2.83;;;5.20;1.00;;;;;;5046847;28;20448;-56
2022/12/28 02:05:37;;;;;;;5.50;2.13;;;5.10;1.00;;;;;;5048659;28;20224;-55
2022/12/28 02:08:08;;;;;;;3.73;3.30;;;5.10;1.00;;;;;;5042697;28;20474;-56
2022/12/28 02:10:36;;;;;;;4.03;2.83;;;5.00;1.00;;;;;;5046117;28;20439;-57
2022/12/28 02:13:03;;;;;;;3.87;2.30;;;5.10;1.00;;;;;;5049607;28;20490;-56
2022/12/28 02:15:28;;;;;;;3.70;3.30;;;5.00;1.00;;;;;;5048623;28;20472;-56
2022/12/28 02:17:54;;;;;;;4.10;2.93;;;5.00;1.00;;;;;;5046409;28;20538;-57
2022/12/28 02:20:23;;;;;;;4.33;2.93;;;5.00;1.00;;;;;;5053278;28;20207;-56
2022/12/28 02:22:58;;;;;;;5.40;2.60;;;5.10;1.00;;;;;;5062932;28;20449;-57
2022/12/28 02:25:39;;;;;;;3.50;3.10;;;5.10;1.00;;;;;;5047061;28;21109;-56
2022/12/28 02:28:14;;;;;;;5.00;3.00;;;5.00;1.00;;;;;;5044746;28;20474;-56
2022/12/28 02:30:53;;;;;;;4.53;2.90;;;5.10;1.00;;;;;;5048728;28;20446;-56
2022/12/28 02:33:52;;;;;;;4.80;3.30;;;5.00;1.00;;;;;;5047855;28;20789;-56
2022/12/28 02:36:23;;;;;;;4.70;3.47;;;5.00;1.00;;;;;;5037133;28;20786;-57
2022/12/28 02:39:04;;;;;;;5.87;3.20;;;5.00;1.00;;;;;;5046170;28;20817;-57
2022/12/28 02:41:32;;;;;;;4.70;3.20;;;5.00;1.00;;;;;;5047620;28;20435;-56
2022/12/28 02:43:59;;;;;;;3.80;2.87;;;5.00;1.00;;;;;;5050604;28;20436;-55
2022/12/28 02:52:43;;;;;;;5.50;3.60;;;5.00;1.00;;;;;;5047207;28;20491;-55
2022/12/28 02:58:22;;;;;;;7.70;3.37;;;5.00;1.00;;;;;;5042802;28;21034;-55
2022/12/28 03:01:18;;;;;;;4.53;3.50;;;5.00;1.00;;;;;;5044504;28;20448;-57
2022/12/28 03:03:55;;;;;;;6.77;3.37;;;5.00;1.00;;;;;;5043359;28;20455;-56
2022/12/28 03:09:31;;;;;;;4.03;3.10;;;5.30;1.00;;;;;;5045111;28;20529;-55
2022/12/28 03:12:12;;;;;;;3.77;3.20;;;5.10;1.00;;;;;;5043986;28;20445;-56
2022/12/28 03:14:46;;;;;;;5.60;4.30;;;5.00;1.00;;;;;;5049561;28;20434;-56
2022/12/28 03:31:17;;;;;;;6.77;3.77;;;5.10;1.00;;;;;;5044382;28;20453;-56
2022/12/28 03:33:48;;;;;;;6.50;3.83;;;5.10;1.00;;;;;;5045661;28;20436;-57
2022/12/28 03:36:28;;;;;;;7.00;4.27;;;5.10;1.00;;;;;;5046477;28;20446;-55
2022/12/28 03:39:22;;;;;;;4.33;3.70;;;5.20;1.00;;;;;;5048131;28;20450;-56
2022/12/28 03:44:49;;;;;;;4.93;3.47;;;5.20;1.00;;;;;;5051419;28;20456;-56
2022/12/28 03:47:16;;;;;;;5.07;2.97;;;5.20;1.00;;;;;;5051350;28;20499;-56
2022/12/28 03:49:42;;;;;;;4.00;3.50;;;5.20;1.00;;;;;;5045523;28;20450;-56
2022/12/28 03:52:09;;;;;;;4.80;3.13;;;5.20;1.00;;;;;;5047372;28;21181;-56
2022/12/28 03:54:35;;;;;;;4.30;3.43;;;5.30;1.00;;;;;;5042104;28;20217;-56
2022/12/28 03:57:01;;;;;;;7.60;3.60;;;5.20;1.00;;;;;;5049763;28;20495;-56
2022/12/28 03:59:26;;;;;;;3.40;3.00;;;5.20;1.00;;;;;;5049897;28;20482;-57
2022/12/28 04:01:52;;;;;;;3.70;3.07;;;5.30;1.00;;;;;;5052797;28;20196;-56
2022/12/28 04:04:17;;;;;;;4.90;3.80;;;5.20;1.00;;;;;;5051561;28;20191;-57
2022/12/28 04:06:43;;;;;;;3.33;2.93;;;5.30;1.00;;;;;;5048134;28;20208;-55
2022/12/28 04:09:09;;;;;;;5.00;3.53;;;5.30;1.00;;;;;;5044561;28;20211;-56
2022/12/28 04:11:34;;;;;;;5.27;3.10;;;5.30;1.00;;;;;;5048763;28;20192;-56
2022/12/28 04:14:03;;;;;;;4.33;3.03;;;5.20;1.00;;;;;;5054941;28;20278;-57
2022/12/28 04:16:28;;;;;;;4.10;2.97;;;5.30;1.00;;;;;;5044235;28;20205;-56
2022/12/28 04:18:54;;;;;;;11.00;3.23;;;5.20;1.00;;;;;;5051621;28;20486;-56
2022/12/28 04:21:20;;;;;;;5.33;2.80;;;5.20;1.00;;;;;;5049834;28;20242;-57
2022/12/28 04:23:45;;;;;;;8.20;3.30;;;5.20;1.00;;;;;;5051014;28;20192;-56
2022/12/28 04:26:13;;;;;;;6.80;3.60;;;5.20;1.00;;;;;;5049287;28;20186;-57
2022/12/28 04:28:40;;;;;;;3.50;2.83;;;5.20;1.00;;;;;;5045397;28;20478;-57
2022/12/28 04:31:09;;;;;;;6.30;2.70;;;5.30;1.00;;;;;;5054839;28;20447;-56
2022/12/28 04:33:36;;;;;;;5.33;2.60;;;5.30;1.00;;;;;;5051262;28;20522;-55
2022/12/28 04:36:12;;;;;;;6.23;2.50;;;5.30;1.00;;;;;;5049029;28;20458;-56
2022/12/28 04:38:38;;;;;;;5.60;2.80;;;5.40;1.00;;;;;;5044053;28;20454;-56
2022/12/28 04:41:05;;;;;;;2.40;2.20;;;5.50;1.00;;;;;;5046379;28;20456;-55
2022/12/28 04:43:32;;;;;;;4.53;2.40;;;5.50;1.00;;;;;;5051506;28;20201;-57
2022/12/28 04:46:00;;;;;;;2.83;2.30;;;5.50;1.00;;;;;;5043052;28;20451;-56
2022/12/28 04:48:26;;;;;;;3.63;2.97;;;5.40;1.00;;;;;;5051652;28;20808;-56
2022/12/28 04:50:53;;;;;;;5.07;3.23;;;5.50;1.00;;;;;;5048846;28;20454;-56
2022/12/28 04:53:19;;;;;;;4.00;2.73;;;5.50;1.00;;;;;;5048908;28;20989;-57
2022/12/28 04:55:44;;;;;;;3.90;2.87;;;5.60;1.00;;;;;;5048451;28;20474;-56
2022/12/28 04:58:10;;;;;;;4.33;3.50;;;5.50;1.00;;;;;;5050106;28;20942;-63
2022/12/28 05:00:36;;;;;;;4.60;2.33;;;5.50;1.00;;;;;;5050440;28;20199;-58
2022/12/28 05:03:02;;;;;;;3.50;2.43;;;5.50;1.00;;;;;;5050348;28;20201;-59
2022/12/28 05:05:28;;;;;;;2.00;1.80;;;5.60;1.00;;;;;;5057706;28;20201;-55
2022/12/28 05:07:53;;;;;;;5.90;2.90;;;5.60;1.00;;;;;;5044876;28;20275;-58
2022/12/28 05:10:19;;;;;;;4.13;2.50;;;5.60;1.00;;;;;;5049827;28;20478;-59
2022/12/28 05:12:45;;;;;;;4.97;3.10;;;5.80;1.00;;;;;;5049286;28;20196;-57
2022/12/28 05:15:11;;;;;;;5.97;3.07;;;5.90;1.00;;;;;;5050429;28;20181;-57
2022/12/28 05:17:36;;;;;;;3.40;2.60;;;5.90;1.00;;;;;;5049174;28;20457;-57
2022/12/28 05:20:03;;;;;;;3.07;2.77;;;6.00;1.00;;;;;;5061536;28;20202;-58
2022/12/28 05:22:30;;;;;;;5.47;2.70;;;5.90;1.00;;;;;;5047599;28;20196;-58
2022/12/28 05:24:56;;;;;;;4.13;3.17;;;5.90;1.00;;;;;;5049264;28;20442;-56
2022/12/28 05:27:21;;;;;;;4.90;2.90;;;5.80;1.00;;;;;;5048864;28;20531;-57
2022/12/28 05:29:47;;;;;;;4.13;3.10;;;5.90;1.00;;;;;;5051205;28;20251;-57
2022/12/28 05:32:12;;;;;;;4.23;2.70;;;6.00;1.00;;;;;;5048910;28;20562;-57
2022/12/28 05:34:38;;;;;;;5.00;3.40;;;6.00;1.00;;;;;;5049375;28;20185;-56
2022/12/28 05:37:04;;;;;;;2.90;2.60;;;6.00;1.00;;;;;;5049409;28;20201;-57
2022/12/28 05:39:29;;;;;;;6.37;3.17;;;5.90;1.00;;;;;;5048095;28;20188;-57
2022/12/28 05:41:58;;;;;;;5.40;3.10;;;6.00;1.00;;;;;;5048642;28;20200;-56
2022/12/28 05:44:28;;;;;;;5.40;3.17;;;5.90;1.00;;;;;;5047167;28;20319;-58
2022/12/28 05:46:54;;;;;;;4.20;3.10;;;5.90;1.00;;;;;;5052823;28;20915;-58
2022/12/28 05:49:19;;;;;;;5.00;3.63;;;6.00;1.00;;;;;;5048435;28;20476;-57
2022/12/28 05:51:50;;;;;;;3.80;3.00;;;6.00;1.00;;;;;;5045003;28;20193;-57
2022/12/28 05:54:16;;;;;;;5.57;3.30;;;6.00;1.00;;;;;;5047276;28;20249;-56
2022/12/28 05:56:41;;;;;;;4.50;2.70;;;5.90;1.00;;;;;;5048657;28;20979;-57
2022/12/28 05:59:07;;;;;;;6.63;3.80;;;5.90;1.00;;;;;;5046887;28;20193;-57
2022/12/28 06:01:36;;;;;;;4.00;3.20;;;6.00;1.00;;;;;;5048985;28;20187;-57
2022/12/28 06:04:04;;;;;;;2.83;2.63;;;6.00;1.00;;;;;;5044000;28;20451;-57
2022/12/28 06:06:31;;;;;;;5.87;3.10;;;6.00;1.00;;;;;;5045922;28;20534;-57
2022/12/28 06:08:57;;;;;;;4.07;2.80;;;6.00;1.00;;;;;;5046912;28;20474;-58
2022/12/28 06:11:25;;;;;;;3.93;3.20;;;6.00;1.00;;;;;;5046923;28;20470;-57
2022/12/28 06:13:51;;;;;;;4.97;3.07;;;6.10;1.00;;;;;;5056028;28;20184;-57
2022/12/28 06:16:24;;;;;;;3.03;2.73;;;6.10;1.00;;;;;;5068999;28;20521;-59
2022/12/28 06:18:51;;;;;;;3.60;2.63;;;6.10;1.00;;;;;;5064777;28;20502;-57
2022/12/28 06:21:21;;;;;;;2.93;2.63;;;6.30;1.00;;;;;;5049160;28;20487;-57
2022/12/28 06:23:47;;;;;;;4.43;2.77;;;6.20;1.00;;;;;;5048140;28;20521;-56
2022/12/28 06:26:15;;;;;;;3.73;2.70;;;6.20;1.00;;;;;;5049014;28;20448;-58
2022/12/28 06:28:42;;;;;;;6.20;3.20;;;6.30;1.00;;;;;;5048452;28;20482;-56
2022/12/28 06:31:20;;;;;;;5.30;3.13;;;6.30;1.00;;;;;;5048673;28;20423;-57
2022/12/28 06:33:47;;;;;;;3.80;2.13;;;6.30;1.00;;;;;;5061055;28;20450;-57
2022/12/28 06:36:17;;;;;;;9.90;3.60;;;6.30;1.00;;;;;;5049087;28;20421;-57
2022/12/28 06:38:44;;;;;;;4.37;2.83;;;6.40;1.00;;;;;;5047059;28;20446;-58
2022/12/28 06:41:11;;;;;;;4.50;2.57;;;6.50;1.00;;;;;;5046303;28;20448;-56
2022/12/28 06:43:38;;;;;;;4.27;2.77;;;6.50;1.00;;;;;;5048585;28;20444;-58
2022/12/28 06:46:05;;;;;;;3.70;2.13;;;6.60;1.00;;;;;;5047975;28;20440;-58
2022/12/28 06:48:33;;;;;;;2.87;1.80;;;6.40;1.00;;;;;;5048169;28;20479;-58
2022/12/28 06:51:03;;;;;;;3.00;2.70;;;6.50;1.00;;;;;;5048210;28;20547;-57
2022/12/28 06:53:32;;;;;;;6.23;3.30;;;6.50;1.00;;;;;;5045691;28;20914;-58
2022/12/28 06:56:00;;;;;;;4.53;2.97;;;6.50;1.00;;;;;;5045223;28;20448;-57
2022/12/28 06:58:27;;;;;;;3.10;2.30;;;6.50;1.00;;;;;;5048671;28;20955;-57
2022/12/28 07:00:54;;;;;;;4.97;2.17;;;6.50;1.00;;;;;;5046406;28;20459;-58
2022/12/28 07:03:20;;;;;;;6.43;2.60;;;6.60;1.00;;;;;;5048446;28;20772;-57
2022/12/28 07:05:46;;;;;;;2.47;2.10;;;6.80;1.00;;;;;;5048271;28;20521;-57
2022/12/28 07:08:12;;;;;;;4.80;2.30;;;6.80;1.00;;;;;;5046624;28;21031;-57
2022/12/28 07:10:38;;;;;;;4.93;2.20;;;6.80;1.00;;;;;;5044936;28;20182;-57
2022/12/28 07:13:04;;;;;;;5.07;2.30;;;7.20;1.00;;;;;;5047946;28;20952;-58
2022/12/28 07:15:30;;;;;;;4.20;2.47;;;7.60;1.00;;;;;;5048391;28;20774;-59
2022/12/28 07:17:57;;;;;;;5.00;2.13;;;7.80;1.00;;;;;;5049132;28;20512;-57
2022/12/28 07:20:23;;;;;;;4.23;2.67;;;7.70;1.00;;;;;;5048993;28;20432;-59
2022/12/28 07:22:48;;;;;;;4.93;3.00;;;7.50;1.00;;;;;;5048820;28;21097;-58
2022/12/28 07:25:14;;;;;;;3.20;2.40;;;7.40;1.00;;;;;;5046691;28;20537;-59
2022/12/28 07:27:40;;;;;;;2.40;2.20;;;7.30;1.00;;;;;;5048040;28;20187;-58
2022/12/28 07:30:07;;;;;;;6.70;2.63;;;7.30;1.00;;;;;;5048220;28;20429;-58
2022/12/28 07:32:36;;;;;;;5.90;1.80;;;7.20;1.00;;;;;;5051307;28;20475;-58
2022/12/28 07:35:02;;;;;;;3.87;2.70;;;7.20;1.00;;;;;;5052346;28;20869;-58
2022/12/28 07:37:27;;;;;;;5.00;2.87;;;7.30;1.00;;;;;;5052575;28;20462;-59
2022/12/28 07:39:53;;;;;;;2.20;2.00;;;7.20;1.00;;;;;;5051211;28;20435;-58
2022/12/28 07:42:18;;;;;;;2.60;2.00;;;7.30;1.00;;;;;;5051206;28;20207;-59
2022/12/28 07:44:46;;;;;;;1.90;1.80;;;7.30;1.00;;;;;;5049874;28;21334;-60
2022/12/28 07:47:12;;;;;;;2.00;1.80;;;7.30;1.00;;;;;;5052124;28;20213;-58
2022/12/28 07:49:38;;;;;;;4.60;2.60;;;7.30;1.00;;;;;;5050810;28;20985;-59
2022/12/28 07:52:03;;;;;;;2.40;1.70;;;7.40;1.00;;;;;;5052224;28;20448;-59
2022/12/28 07:54:29;;;;;;;2.80;1.67;;;7.60;1.00;;;;;;5051284;28;20190;-59
2022/12/28 07:56:55;;;;;;;2.97;1.90;;;7.60;1.00;;;;;;5051579;28;20205;-59
2022/12/28 07:59:20;;;;;;;6.20;2.20;;;7.50;1.00;;;;;;5052334;28;20635;-58
2022/12/28 08:01:49;;;;;;;3.10;2.00;;;7.50;1.00;;;;;;5052014;28;20247;-58
2022/12/28 08:04:16;;;;;;;1.77;1.67;;;7.50;1.00;;;;;;5052149;28;20276;-60
2022/12/28 08:06:43;;;;;;;8.53;2.33;;;7.50;1.00;;;;;;5052044;28;20446;-59
2022/12/28 08:09:10;;;;;;;5.40;2.23;;;7.50;1.00;;;;;;5050355;28;20472;-59
2022/12/28 08:11:39;;;;;;;3.53;2.17;;;7.60;1.00;;;;;;5051851;28;20911;-60
2022/12/28 08:14:05;;;;;;;3.83;2.00;;;7.70;1.00;;;;;;5051943;28;20647;-59
2022/12/28 08:16:35;;;;;;;2.93;1.70;;;7.70;1.00;;;;;;5052041;28;20444;-58
2022/12/28 08:19:00;;;;;;;4.03;1.90;;;7.70;1.00;;;;;;5051748;28;20450;-59
2022/12/28 08:21:29;;;;;;;2.33;1.30;;;7.80;1.00;;;;;;5051766;28;20790;-59
2022/12/28 08:23:56;;;;;;;3.70;2.20;;;7.80;1.00;;;;;;5051220;28;20599;-59
2022/12/28 08:26:24;;;;;;;5.53;2.07;;;7.80;1.00;;;;;;5051241;28;20476;-59
2022/12/28 08:28:52;;;;;;;5.50;3.17;;;7.90;1.00;;;;;;5051625;28;20471;-58
2022/12/28 08:31:21;;;;;;;2.80;1.70;;;8.00;1.00;;;;;;5050927;28;20929;-59
2022/12/28 08:33:47;;;;;;;4.17;2.37;;;8.00;1.00;;;;;;5051758;28;20802;-59
2022/12/28 08:36:13;;;;;;;3.70;1.70;;;8.20;1.00;;;;;;5049864;28;20516;-58
2022/12/28 08:38:40;;;;;;;2.60;1.70;;;8.20;1.00;;;;;;5051009;28;20444;-58
2022/12/28 08:41:09;;;;;;;8.17;2.60;;;8.20;1.00;;;;;;5050373;28;20527;-60
2022/12/28 08:43:35;;;;;;;3.03;1.77;;;8.30;1.00;;;;;;5053231;28;20452;-59
2022/12/28 08:46:05;;;;;;;2.80;2.20;;;8.30;1.00;;;;;;5071584;28;20409;-58
2022/12/28 08:48:32;;;;;;;5.80;2.20;;;8.30;1.00;;;;;;5070938;28;20247;-59
2022/12/28 08:51:04;;;;;;;4.00;2.67;;;8.20;1.00;;;;;;5071420;28;20519;-59
2022/12/28 08:53:31;;;;;;;4.40;2.57;;;8.20;1.00;;;;;;5069832;28;20446;-58
2022/12/28 08:56:06;;;;;;;5.33;2.40;;;8.40;1.00;;;;;;5050029;28;20467;-58
2022/12/28 08:58:32;;;;;;;3.20;1.80;;;8.30;1.00;;;;;;5051258;28;20502;-59
2022/12/28 09:01:13;;;;;;;4.40;2.13;;;8.40;1.00;;;;;;5049040;28;20530;-59
2022/12/28 09:03:41;;;;;;;2.43;2.03;;;8.50;1.00;;;;;;5059372;28;20241;-60
2022/12/28 09:06:15;;;;;;;5.20;2.20;;;8.60;1.00;;;;;;5049104;28;20436;-60
2022/12/28 09:08:41;;;;;;;2.30;2.10;;;8.70;1.00;;;;;;5050559;28;20993;-59
2022/12/28 09:11:09;;;;;;;4.20;2.37;;;8.70;1.00;;;;;;5050488;28;20452;-59
2022/12/28 09:13:36;;;;;;;2.43;2.00;;;8.80;1.00;;;;;;5048467;28;20784;-60
2022/12/28 09:16:13;;;;;;;2.87;1.97;;;8.90;1.00;;;;;;5050562;28;20798;-60
2022/12/28 09:18:40;;;;;;;2.63;1.93;;;8.90;1.00;;;;;;5049390;28;20450;-59
2022/12/28 09:21:12;;;;;;;4.37;2.53;;;9.00;1.00;;;;;;5049712;28;20455;-58
2022/12/28 09:23:39;;;;;;;2.80;2.17;;;8.90;1.00;;;;;;5049135;28;20457;-58
2022/12/28 09:26:18;;;;;;;3.40;1.70;;;9.00;1.00;;;;;;5049242;28;20540;-60
2022/12/28 09:28:46;;;;;;;2.53;2.33;;;9.20;1.00;;;;;;5050231;28;20958;-60
2022/12/28 09:31:11;;;;;;;4.93;2.20;;;9.20;1.00;;;;;;5047231;28;20506;-58
2022/12/28 09:36:22;;;;;;;6.67;3.23;;;9.40;1.00;;;;;;5048396;28;20943;-58
2022/12/28 09:38:48;;;;;;;4.70;2.33;;;9.60;1.00;;;;;;5049260;28;20452;-60
2022/12/28 09:41:30;;;;;;;4.40;2.13;;;9.50;1.00;;;;;;5048615;28;20919;-59
2022/12/28 09:44:11;;;;;;;3.03;2.70;;;9.50;1.00;;;;;;5047154;28;20427;-58
2022/12/28 09:46:41;;;;;;;4.40;2.10;;;9.50;1.00;;;;;;5049791;28;20498;-59
2022/12/28 09:49:16;;;;;;;2.20;1.83;;;9.60;1.00;;;;;;5049415;28;20480;-60
2022/12/28 09:51:57;;;;;;;2.53;2.33;;;9.60;1.00;;;;;;5049829;28;20433;-60
2022/12/28 09:54:23;;;;;;;3.67;2.47;;;9.60;1.00;;;;;;5049890;28;20943;-59
2022/12/28 09:56:49;;;;;;;2.23;2.00;;;9.60;1.00;;;;;;5063789;28;20436;-58
2022/12/28 09:59:24;;;;;;;3.97;1.90;;;9.60;1.00;;;;;;5064739;28;20217;-59
2022/12/28 10:01:59;;;;;;;6.60;2.47;;;9.70;1.00;;;;;;5050247;28;20415;-58
2022/12/28 10:04:25;;;;;;;3.80;2.53;;;9.60;1.00;;;;;;5050206;28;20446;-57
2022/12/28 10:06:52;;;;;;;3.77;2.17;;;9.60;1.00;;;;;;5049258;28;20432;-58
2022/12/28 10:09:28;;;;;;;3.37;2.17;;;9.60;1.00;;;;;;5048676;28;20453;-59
2022/12/28 10:11:54;;;;;;;2.40;2.20;;;9.60;1.00;;;;;;5048969;28;20487;-58
2022/12/28 10:14:34;;;;;;;4.27;2.10;;;9.80;1.00;;;;;;5048466;28;20443;-60
2022/12/28 10:17:01;;;;;;;3.10;2.80;;;9.80;1.00;;;;;;5048631;28;20451;-59
2022/12/28 10:19:27;;;;;;;3.70;3.20;;;9.60;1.00;;;;;;5049537;28;20778;-59
2022/12/28 10:22:01;;;;;;;3.63;3.20;;;9.50;1.00;;;;;;5048100;28;21206;-59
2022/12/28 10:24:28;;;;;;;4.27;2.77;;;9.50;1.00;;;;;;5045744;28;20444;-58
2022/12/28 10:26:56;;;;;;;2.73;2.50;;;9.40;1.00;;;;;;5047086;28;20461;-59
2022/12/28 10:29:23;;;;;;;3.60;3.13;;;9.50;1.00;;;;;;5047721;28;20728;-58
2022/12/28 10:31:59;;;;;;;5.83;3.03;;;9.50;1.00;;;;;;5049205;28;20825;-58
2022/12/28 10:34:25;;;;;;;4.77;3.13;;;9.50;1.00;;;;;;5048786;28;20436;-59
2022/12/28 10:36:53;;;;;;;4.10;2.50;;;9.60;1.00;;;;;;5048825;28;20503;-59
2022/12/28 10:39:25;;;;;;;4.30;2.83;;;9.60;1.00;;;;;;5048492;28;20917;-58
2022/12/28 10:41:51;;;;;;;3.50;3.20;;;9.80;1.00;;;;;;5048592;28;20448;-58
2022/12/28 10:44:30;;;;;;;3.50;3.00;;;9.80;1.00;;;;;;5048771;28;20848;-58
2022/12/28 10:46:58;;;;;;;3.93;2.83;;;9.80;1.00;;;;;;5048939;28;20572;-59
2022/12/28 10:49:26;;;;;;;3.30;2.90;;;9.90;1.00;;;;;;5048101;28;20529;-59
2022/12/28 10:52:06;;;;;;;2.57;2.37;;;9.90;1.00;;;;;;5048547;28;20459;-59
2022/12/28 10:54:35;;;;;;;3.53;2.20;;;10.10;1.00;;;;;;5048243;28;20418;-58
2022/12/28 10:57:02;;;;;;;3.67;1.80;;;10.10;1.00;;;;;;5048999;28;20452;-58
2022/12/28 10:59:29;;;;;;;2.80;1.87;;;10.20;1.00;;;;;;5048591;28;20424;-59
2022/12/28 11:02:22;;;;;;;5.67;2.17;;;10.20;1.00;;;;;;5048524;28;20477;-59
2022/12/28 11:05:02;;;;;;;1.97;1.77;;;10.50;1.00;;;;;;5050808;28;20445;-59
2022/12/28 11:07:34;;;;;;;3.27;1.20;;;10.70;1.00;;;;;;5052072;28;20417;-59
2022/12/28 11:10:25;;;;;;;1.70;1.43;;;11.00;1.00;;;;;;5045953;28;20420;-58
2022/12/28 11:12:56;;;;;;;1.50;1.10;;;11.00;1.00;;;;;;5052757;28;20439;-58
2022/12/28 11:15:26;;;;;;;2.03;1.30;;;10.90;1.00;;;;;;5050778;28;20456;-60
2022/12/28 11:17:58;;;;;;;2.50;1.10;;;10.90;1.00;;;;;;5051415;28;20441;-59
2022/12/28 11:20:32;;;;;;;1.67;1.03;;;10.90;1.00;;;;;;5052105;28;20431;-60
2022/12/28 11:22:58;;;;;;;1.57;1.20;;;11.20;1.00;;;;;;5052403;28;21003;-59
2022/12/28 11:25:33;;;;;;;4.40;1.30;;;11.10;1.00;;;;;;5050299;28;20431;-59
2022/12/28 11:28:00;;;;;;;2.60;1.73;;;11.10;1.00;;;;;;5051722;28;20931;-59
2022/12/28 11:30:26;;;;;;;1.30;1.07;;;11.10;1.00;;;;;;5052234;28;20431;-58
2022/12/28 11:32:55;;;;;;;3.13;1.20;;;11.30;1.00;;;;;;5052505;28;20528;-58
2022/12/28 11:35:42;;;;;;;2.40;1.40;;;11.20;1.00;;;;;;5050533;28;20446;-58
2022/12/28 11:38:30;;;;;;;1.63;0.93;;;11.10;1.00;;;;;;5051727;28;20427;-59
2022/12/28 11:40:58;;;;;;;3.23;1.60;;;11.10;1.00;;;;;;5050156;28;20814;-60
2022/12/28 11:43:29;;;;;;;5.13;1.60;;;11.10;1.00;;;;;;5047090;28;20449;-58
2022/12/28 11:45:56;;;;;;;1.97;1.40;;;11.10;1.00;;;;;;5051896;28;20444;-60
2022/12/28 11:48:40;;;;;;;1.73;1.60;;;11.10;1.00;;;;;;5051106;28;20474;-59
2022/12/28 11:51:20;;;;;;;3.93;1.53;;;11.10;1.00;;;;;;5050898;28;20448;-59
2022/12/28 11:53:46;;;;;;;4.73;1.63;;;11.00;1.00;;;;;;5052107;28;20455;-59
2022/12/28 11:56:35;;;;;;;2.30;1.47;;;11.00;1.00;;;;;;5049013;28;20785;-58
2022/12/28 11:59:05;;;;;;;1.63;1.30;;;11.00;1.00;;;;;;5049256;28;20620;-59
2022/12/28 12:01:32;;;;;;;2.60;1.40;;;11.00;1.00;;;;;;5064623;28;20534;-60
2022/12/28 12:04:00;;;;;;;3.47;1.30;;;10.90;1.00;;;;;;5053953;28;20445;-58
2022/12/28 12:06:41;;;;;;;3.07;2.10;;;11.00;1.00;;;;;;5052064;28;20626;-58
2022/12/28 12:09:24;;;;;;;3.53;1.70;;;11.40;1.00;;;;;;5050914;28;20469;-58
2022/12/28 12:11:51;;;;;;;3.27;2.10;;;11.30;1.00;;;;;;5049335;28;20451;-58
2022/12/28 12:14:26;;;;;;;4.67;1.97;;;11.20;1.00;;;;;;5049704;28;20449;-58
2022/12/28 12:17:06;;;;;;;4.70;2.57;;;11.10;1.00;;;;;;5049558;28;20446;-59
2022/12/28 12:19:35;;;;;;;2.60;2.13;;;11.00;1.00;;;;;;5049990;28;20551;-59
2022/12/28 12:22:19;;;;;;;2.67;1.77;;;11.00;1.00;;;;;;5051425;28;20801;-59
2022/12/28 12:25:00;;;;;;;4.77;2.40;;;10.90;1.00;;;;;;5050988;28;20428;-58
2022/12/28 12:27:31;;;;;;;2.73;2.30;;;11.00;1.00;;;;;;5051414;28;20440;-59
2022/12/28 12:30:03;;;;;;;5.80;3.37;;;11.30;1.00;;;;;;5051180;28;20467;-60
2022/12/28 12:32:52;;;;;;;4.03;2.90;;;11.10;1.00;;;;;;5050276;28;20981;-59
2022/12/28 12:35:24;;;;;;;3.97;2.20;;;11.00;1.00;;;;;;5050169;28;20413;-59
2022/12/28 12:38:12;;;;;;;5.27;3.10;;;11.10;1.00;;;;;;5051422;28;20796;-60
2022/12/28 12:41:15;;;;;;;2.30;1.40;;;11.20;1.00;;;;;;5051460;28;20446;-58
2022/12/28 12:44:16;;;;;;;1.80;1.70;;;11.30;1.00;;;;;;5051746;28;20766;-59
2022/12/28 12:47:17;;;;;;;2.43;1.90;;;11.40;1.00;;;;;;5061630;28;21018;-60
2022/12/28 12:49:57;;;;;;;3.17;1.23;;;11.30;1.00;;;;;;5053690;28;20479;-58
2022/12/28 12:52:49;;;;;;;1.43;1.30;;;11.50;1.00;;;;;;5050473;28;20432;-59
2022/12/28 12:55:41;;;;;;;1.80;1.40;;;11.60;1.00;;;;;;5044777;28;20442;-59
2022/12/28 12:58:27;;;;;;;2.10;1.43;;;11.50;1.00;;;;;;5047142;28;20445;-60
2022/12/28 13:01:13;;;;;;;1.40;1.10;;;11.60;1.00;;;;;;5047264;28;20449;-59
2022/12/28 13:03:48;;;;;;;2.10;1.53;;;11.70;1.00;;;;;;5049825;28;20490;-59
2022/12/28 13:06:23;;;;;;;3.57;2.30;;;11.50;1.00;;;;;;5049779;28;20879;-59
2022/12/28 13:08:48;;;;;;;3.17;2.87;;;11.40;1.00;;;;;;5047391;28;20472;-59
2022/12/28 13:11:16;;;;;;;4.70;3.20;;;11.30;1.00;;;;;;5048220;28;20446;-59
2022/12/28 13:13:46;;;;;;;9.00;3.13;;;11.10;1.00;;;;;;5050787;28;20223;-59
2022/12/28 13:16:20;;;;;;;5.27;2.67;;;11.00;1.00;;;;;;5055068;28;20422;-59
2022/12/28 13:19:17;;;;;;;3.90;3.23;;;11.10;1.00;;;;;;5060714;28;20430;-58
2022/12/28 13:21:45;;;;;;;3.47;3.13;;;10.90;1.00;;;;;;5048111;28;20427;-59
2022/12/28 13:24:20;;;;;;;3.67;3.13;;;10.90;1.00;;;;;;5047658;28;20461;-58
2022/12/28 13:26:45;;;;;;;5.47;3.83;;;10.80;1.00;;;;;;5049658;28;20815;-59
2022/12/28 13:29:17;;;;;;;4.53;3.00;;;10.80;1.00;;;;;;5047595;28;20452;-58
2022/12/28 13:31:48;;;;;;;1.37;1.27;;;10.90;1.00;;;;;;5046979;28;20222;-60
2022/12/28 13:34:34;;;;;;;3.60;1.80;;;11.10;1.00;;;;;;5049418;28;20447;-59
2022/12/28 13:37:14;;;;;;;3.57;2.20;;;11.30;1.00;;;;;;5047714;28;20452;-59
2022/12/28 13:39:40;;;;;;;5.80;2.30;;;11.30;1.00;;;;;;5049828;28;20846;-59
2022/12/28 13:42:18;;;;;;;3.47;2.70;;;11.30;1.00;;;;;;5048080;28;20468;-59
2022/12/28 13:44:55;;;;;;;3.87;3.50;;;11.30;1.00;;;;;;5048749;28;20186;-60
2022/12/28 13:47:29;;;;;;;4.50;3.13;;;11.20;1.00;;;;;;5049429;28;20678;-60
2022/12/28 13:49:54;;;;;;;4.90;4.20;;;11.10;1.00;;;;;;5050102;28;20468;-58
2022/12/28 13:52:27;;;;;;;4.60;4.10;;;11.00;1.00;;;;;;5047780;28;20808;-59
2022/12/28 13:54:59;;;;;;;6.60;4.60;;;10.80;1.00;;;;;;5046995;28;20221;-59